sensor_id;sensor_type;location;lat;lon;timestamp;P1;P2;P0
44045;PMS7003;29709;52.396;16.796;2024-03-22T00:01:40;4;3;2
44045;PMS7003;29709;52.396;16.796;2024-03-22T00:04:53;2;1;0
44045;PMS7003;29709;52.396;16.796;2024-03-22T00:08:07;3;2;1
44045;PMS7003;29709;52.396;16.796;2024-03-22T00:11:21;3;2;2
44045;PMS7003;29709;52.396;16.796;2024-03-22T00:14:36;4;1;1
44045;PMS7003;29709;52.396;16.796;2024-03-22T00:17:49;4;2;1
44045;PMS7003;29709;52.396;16.796;2024-03-22T00:21:02;1;0;0
44045;PMS7003;29709;52.396;16.796;2024-03-22T00:24:16;3;2;1
44045;PMS7003;29709;52.396;16.796;2024-03-22T00:27:29;2;2;1
44045;PMS7003;29709;52.396;16.796;2024-03-22T00:30:42;2;2;1
44045;PMS7003;29709;52.396;16.796;2024-03-22T00:33:56;3;2;1
44045;PMS7003;29709;52.396;16.796;2024-03-22T00:37:09;3;3;2
44045;PMS7003;29709;52.396;16.796;2024-03-22T00:40:22;3;2;2
44045;PMS7003;29709;52.396;16.796;2024-03-22T00:43:36;5;3;2
44045;PMS7003;29709;52.396;16.796;2024-03-22T00:46:49;3;3;2
44045;PMS7003;29709;52.396;16.796;2024-03-22T00:50:02;2;2;1
44045;PMS7003;29709;52.396;16.796;2024-03-22T00:53:17;4;2;1
44045;PMS7003;29709;52.396;16.796;2024-03-22T00:56:30;3;1;0
44045;PMS7003;29709;52.396;16.796;2024-03-22T00:59:43;2;2;1
44045;PMS7003;29709;52.396;16.796;2024-03-22T01:02:57;4;4;2
44045;PMS7003;29709;52.396;16.796;2024-03-22T01:06:10;3;3;2
44045;PMS7003;29709;52.396;16.796;2024-03-22T01:09:23;3;3;1
44045;PMS7003;29709;52.396;16.796;2024-03-22T01:12:37;5;2;1
44045;PMS7003;29709;52.396;16.796;2024-03-22T01:15:52;5;4;4
44045;PMS7003;29709;52.396;16.796;2024-03-22T01:19:06;5;4;3
44045;PMS7003;29709;52.396;16.796;2024-03-22T01:22:19;4;4;3
44045;PMS7003;29709;52.396;16.796;2024-03-22T01:25:32;4;3;2
44045;PMS7003;29709;52.396;16.796;2024-03-22T01:28:46;3;3;1
44045;PMS7003;29709;52.396;16.796;2024-03-22T01:32:01;4;3;2
44045;PMS7003;29709;52.396;16.796;2024-03-22T01:35:15;4;4;3
44045;PMS7003;29709;52.396;16.796;2024-03-22T01:38:28;4;3;2
44045;PMS7003;29709;52.396;16.796;2024-03-22T01:41:43;3;3;2
44045;PMS7003;29709;52.396;16.796;2024-03-22T01:44:56;4;4;2
44045;PMS7003;29709;52.396;16.796;2024-03-22T01:48:12;4;3;2
44045;PMS7003;29709;52.396;16.796;2024-03-22T01:51:28;4;3;2
44045;PMS7003;29709;52.396;16.796;2024-03-22T01:54:41;6;5;4
44045;PMS7003;29709;52.396;16.796;2024-03-22T01:57:55;3;3;2
44045;PMS7003;29709;52.396;16.796;2024-03-22T02:01:08;2;2;1
44045;PMS7003;29709;52.396;16.796;2024-03-22T02:04:22;5;4;3
44045;PMS7003;29709;52.396;16.796;2024-03-22T02:07:35;4;4;3
44045;PMS7003;29709;52.396;16.796;2024-03-22T02:10:48;3;3;2
44045;PMS7003;29709;52.396;16.796;2024-03-22T02:14:01;4;3;3
44045;PMS7003;29709;52.396;16.796;2024-03-22T02:17:15;6;4;2
44045;PMS7003;29709;52.396;16.796;2024-03-22T02:20:28;4;4;3
44045;PMS7003;29709;52.396;16.796;2024-03-22T02:23:42;3;3;3
44045;PMS7003;29709;52.396;16.796;2024-03-22T02:26:55;3;3;2
44045;PMS7003;29709;52.396;16.796;2024-03-22T02:30:08;6;5;4
44045;PMS7003;29709;52.396;16.796;2024-03-22T02:33:22;3;3;2
44045;PMS7003;29709;52.396;16.796;2024-03-22T02:36:35;5;4;3
44045;PMS7003;29709;52.396;16.796;2024-03-22T02:39:49;7;5;3
44045;PMS7003;29709;52.396;16.796;2024-03-22T02:43:03;5;4;3
44045;PMS7003;29709;52.396;16.796;2024-03-22T02:46:16;5;4;3
44045;PMS7003;29709;52.396;16.796;2024-03-22T02:49:29;4;4;3
44045;PMS7003;29709;52.396;16.796;2024-03-22T02:52:43;5;3;2
44045;PMS7003;29709;52.396;16.796;2024-03-22T02:55:56;5;4;2
44045;PMS7003;29709;52.396;16.796;2024-03-22T02:59:12;4;4;3
44045;PMS7003;29709;52.396;16.796;2024-03-22T03:02:26;5;3;2
44045;PMS7003;29709;52.396;16.796;2024-03-22T03:05:39;4;3;2
44045;PMS7003;29709;52.396;16.796;2024-03-22T03:08:54;4;3;2
44045;PMS7003;29709;52.396;16.796;2024-03-22T03:12:07;3;2;2
44045;PMS7003;29709;52.396;16.796;2024-03-22T03:15:20;2;2;2
44045;PMS7003;29709;52.396;16.796;2024-03-22T03:18:34;4;3;2
44045;PMS7003;29709;52.396;16.796;2024-03-22T03:21:49;6;4;2
44045;PMS7003;29709;52.396;16.796;2024-03-22T03:25:03;3;2;2
44045;PMS7003;29709;52.396;16.796;2024-03-22T03:28:17;4;2;2
44045;PMS7003;29709;52.396;16.796;2024-03-22T03:31:31;1;0;0
44045;PMS7003;29709;52.396;16.796;2024-03-22T03:34:45;2;2;1
44045;PMS7003;29709;52.396;16.796;2024-03-22T03:37:58;3;3;2
44045;PMS7003;29709;52.396;16.796;2024-03-22T03:41:12;5;3;2
44045;PMS7003;29709;52.396;16.796;2024-03-22T03:44:25;3;3;2
44045;PMS7003;29709;52.396;16.796;2024-03-22T03:47:39;4;3;2
44045;PMS7003;29709;52.396;16.796;2024-03-22T03:50:53;4;3;2
44045;PMS7003;29709;52.396;16.796;2024-03-22T03:54:11;4;3;2
44045;PMS7003;29709;52.396;16.796;2024-03-22T03:57:24;4;4;2
44045;PMS7003;29709;52.396;16.796;2024-03-22T04:00:38;2;2;2
44045;PMS7003;29709;52.396;16.796;2024-03-22T04:03:51;4;3;2
44045;PMS7003;29709;52.396;16.796;2024-03-22T04:07:04;4;3;2
44045;PMS7003;29709;52.396;16.796;2024-03-22T04:10:17;3;2;2
44045;PMS7003;29709;52.396;16.796;2024-03-22T04:13:31;3;2;2
44045;PMS7003;29709;52.396;16.796;2024-03-22T04:16:44;3;3;2
44045;PMS7003;29709;52.396;16.796;2024-03-22T04:19:57;4;3;2
44045;PMS7003;29709;52.396;16.796;2024-03-22T04:23:11;4;2;1
44045;PMS7003;29709;52.396;16.796;2024-03-22T04:26:24;5;3;2
44045;PMS7003;29709;52.396;16.796;2024-03-22T04:29:37;6;4;3
44045;PMS7003;29709;52.396;16.796;2024-03-22T04:32:51;4;3;2
44045;PMS7003;29709;52.396;16.796;2024-03-22T04:36:04;3;2;2
44045;PMS7003;29709;52.396;16.796;2024-03-22T04:39:21;4;4;3
44045;PMS7003;29709;52.396;16.796;2024-03-22T04:42:35;5;4;2
44045;PMS7003;29709;52.396;16.796;2024-03-22T04:45:48;4;2;2
44045;PMS7003;29709;52.396;16.796;2024-03-22T04:49:03;4;4;2
44045;PMS7003;29709;52.396;16.796;2024-03-22T04:52:16;6;3;2
44045;PMS7003;29709;52.396;16.796;2024-03-22T04:55:29;4;3;2
44045;PMS7003;29709;52.396;16.796;2024-03-22T04:58:43;5;3;2
44045;PMS7003;29709;52.396;16.796;2024-03-22T05:01:56;4;3;3
44045;PMS7003;29709;52.396;16.796;2024-03-22T05:05:09;5;3;2
44045;PMS7003;29709;52.396;16.796;2024-03-22T05:08:22;6;5;3
44045;PMS7003;29709;52.396;16.796;2024-03-22T05:11:36;6;6;3
44045;PMS7003;29709;52.396;16.796;2024-03-22T05:14:49;3;3;2
44045;PMS7003;29709;52.396;16.796;2024-03-22T05:18:03;4;2;2
44045;PMS7003;29709;52.396;16.796;2024-03-22T05:21:17;4;4;2
44045;PMS7003;29709;52.396;16.796;2024-03-22T05:24:30;4;4;2
44045;PMS7003;29709;52.396;16.796;2024-03-22T05:27:44;4;3;2
44045;PMS7003;29709;52.396;16.796;2024-03-22T05:30:57;4;4;2
44045;PMS7003;29709;52.396;16.796;2024-03-22T05:34:11;4;3;2
44045;PMS7003;29709;52.396;16.796;2024-03-22T05:37:24;4;3;2
44045;PMS7003;29709;52.396;16.796;2024-03-22T05:40:37;4;4;2
44045;PMS7003;29709;52.396;16.796;2024-03-22T05:43:53;8;6;3
44045;PMS7003;29709;52.396;16.796;2024-03-22T05:47:06;6;5;3
44045;PMS7003;29709;52.396;16.796;2024-03-22T05:50:20;6;3;2
44045;PMS7003;29709;52.396;16.796;2024-03-22T05:53:33;7;5;3
44045;PMS7003;29709;52.396;16.796;2024-03-22T05:56:46;3;2;2
44045;PMS7003;29709;52.396;16.796;2024-03-22T05:59:59;2;1;0
44045;PMS7003;29709;52.396;16.796;2024-03-22T06:03:13;5;4;2
44045;PMS7003;29709;52.396;16.796;2024-03-22T06:06:26;3;3;2
44045;PMS7003;29709;52.396;16.796;2024-03-22T06:09:40;5;3;2
44045;PMS7003;29709;52.396;16.796;2024-03-22T06:12:59;6;4;3
44045;PMS7003;29709;52.396;16.796;2024-03-22T06:16:13;10;3;2
44045;PMS7003;29709;52.396;16.796;2024-03-22T06:19:26;5;5;3
44045;PMS7003;29709;52.396;16.796;2024-03-22T06:22:39;4;4;2
44045;PMS7003;29709;52.396;16.796;2024-03-22T06:25:53;6;3;2
44045;PMS7003;29709;52.396;16.796;2024-03-22T06:29:09;5;3;2
44045;PMS7003;29709;52.396;16.796;2024-03-22T06:32:23;6;3;2
44045;PMS7003;29709;52.396;16.796;2024-03-22T06:35:36;7;4;3
44045;PMS7003;29709;52.396;16.796;2024-03-22T06:38:49;6;5;4
44045;PMS7003;29709;52.396;16.796;2024-03-22T06:42:03;6;3;2
44045;PMS7003;29709;52.396;16.796;2024-03-22T06:45:16;4;4;2
44045;PMS7003;29709;52.396;16.796;2024-03-22T06:48:30;5;5;3
44045;PMS7003;29709;52.396;16.796;2024-03-22T06:51:43;6;4;2
44045;PMS7003;29709;52.396;16.796;2024-03-22T06:54:56;7;4;2
44045;PMS7003;29709;52.396;16.796;2024-03-22T06:58:09;5;5;3
44045;PMS7003;29709;52.396;16.796;2024-03-22T07:01:23;3;1;0
44045;PMS7003;29709;52.396;16.796;2024-03-22T07:04:36;6;4;2
44045;PMS7003;29709;52.396;16.796;2024-03-22T07:07:49;4;3;2
44045;PMS7003;29709;52.396;16.796;2024-03-22T07:11:06;2;2;1
44045;PMS7003;29709;52.396;16.796;2024-03-22T07:14:21;5;4;3
44045;PMS7003;29709;52.396;16.796;2024-03-22T07:17:37;3;1;1
44045;PMS7003;29709;52.396;16.796;2024-03-22T07:20:51;4;2;2
44045;PMS7003;29709;52.396;16.796;2024-03-22T07:24:04;5;4;3
44045;PMS7003;29709;52.396;16.796;2024-03-22T07:27:18;3;3;2
44045;PMS7003;29709;52.396;16.796;2024-03-22T07:30:31;3;3;2
44045;PMS7003;29709;52.396;16.796;2024-03-22T07:33:44;3;2;1
44045;PMS7003;29709;52.396;16.796;2024-03-22T07:36:58;2;2;2
44045;PMS7003;29709;52.396;16.796;2024-03-22T07:40:11;3;3;2
44045;PMS7003;29709;52.396;16.796;2024-03-22T07:43:24;3;3;2
44045;PMS7003;29709;52.396;16.796;2024-03-22T07:46:38;7;3;2
44045;PMS7003;29709;52.396;16.796;2024-03-22T07:49:51;5;4;2
44045;PMS7003;29709;52.396;16.796;2024-03-22T07:53:04;4;3;2
44045;PMS7003;29709;52.396;16.796;2024-03-22T07:56:18;4;4;3
44045;PMS7003;29709;52.396;16.796;2024-03-22T07:59:31;3;2;2
44045;PMS7003;29709;52.396;16.796;2024-03-22T08:02:45;6;3;2
44045;PMS7003;29709;52.396;16.796;2024-03-22T08:05:58;6;4;3
44045;PMS7003;29709;52.396;16.796;2024-03-22T08:09:11;4;4;3
44045;PMS7003;29709;52.396;16.796;2024-03-22T08:12:24;7;3;2
44045;PMS7003;29709;52.396;16.796;2024-03-22T08:15:37;5;4;2
44045;PMS7003;29709;52.396;16.796;2024-03-22T08:18:51;4;4;3
44045;PMS7003;29709;52.396;16.796;2024-03-22T08:22:04;4;4;3
44045;PMS7003;29709;52.396;16.796;2024-03-22T08:25:18;3;3;2
44045;PMS7003;29709;52.396;16.796;2024-03-22T08:28:33;5;4;2
44045;PMS7003;29709;52.396;16.796;2024-03-22T08:31:46;1;1;0
44045;PMS7003;29709;52.396;16.796;2024-03-22T08:34:59;5;4;3
44045;PMS7003;29709;52.396;16.796;2024-03-22T08:38:12;4;3;2
44045;PMS7003;29709;52.396;16.796;2024-03-22T08:41:27;6;4;3
44045;PMS7003;29709;52.396;16.796;2024-03-22T08:44:40;5;4;3
44045;PMS7003;29709;52.396;16.796;2024-03-22T08:47:54;1;1;0
44045;PMS7003;29709;52.396;16.796;2024-03-22T08:51:07;3;3;2
44045;PMS7003;29709;52.396;16.796;2024-03-22T08:54:20;6;5;4
44045;PMS7003;29709;52.396;16.796;2024-03-22T08:57:33;4;3;2
44045;PMS7003;29709;52.396;16.796;2024-03-22T09:00:46;4;3;3
44045;PMS7003;29709;52.396;16.796;2024-03-22T09:04:00;3;2;1
44045;PMS7003;29709;52.396;16.796;2024-03-22T09:07:13;5;3;2
44045;PMS7003;29709;52.396;16.796;2024-03-22T09:10:26;5;4;3
44045;PMS7003;29709;52.396;16.796;2024-03-22T09:13:40;4;3;3
44045;PMS7003;29709;52.396;16.796;2024-03-22T09:16:53;7;3;2
44045;PMS7003;29709;52.396;16.796;2024-03-22T09:20:07;4;3;3
44045;PMS7003;29709;52.396;16.796;2024-03-22T09:23:21;4;3;3
44045;PMS7003;29709;52.396;16.796;2024-03-22T09:26:34;5;5;4
44045;PMS7003;29709;52.396;16.796;2024-03-22T09:29:48;6;6;3
44045;PMS7003;29709;52.396;16.796;2024-03-22T09:33:02;7;6;4
44045;PMS7003;29709;52.396;16.796;2024-03-22T09:36:16;6;6;4
44045;PMS7003;29709;52.396;16.796;2024-03-22T09:39:29;5;4;3
44045;PMS7003;29709;52.396;16.796;2024-03-22T09:42:45;3;3;2
44045;PMS7003;29709;52.396;16.796;2024-03-22T09:46:01;6;5;4
44045;PMS7003;29709;52.396;16.796;2024-03-22T09:49:15;6;5;3
44045;PMS7003;29709;52.396;16.796;2024-03-22T09:52:29;10;5;2
44045;PMS7003;29709;52.396;16.796;2024-03-22T09:55:47;4;4;3
44045;PMS7003;29709;52.396;16.796;2024-03-22T09:59:01;6;6;4
44045;PMS7003;29709;52.396;16.796;2024-03-22T10:02:15;6;6;4
44045;PMS7003;29709;52.396;16.796;2024-03-22T10:05:30;4;3;2
44045;PMS7003;29709;52.396;16.796;2024-03-22T10:08:44;7;6;5
44045;PMS7003;29709;52.396;16.796;2024-03-22T10:11:58;5;4;3
44045;PMS7003;29709;52.396;16.796;2024-03-22T10:15:11;7;5;3
44045;PMS7003;29709;52.396;16.796;2024-03-22T10:18:25;6;6;4
44045;PMS7003;29709;52.396;16.796;2024-03-22T10:21:39;3;2;1
44045;PMS7003;29709;52.396;16.796;2024-03-22T10:24:52;7;4;3
44045;PMS7003;29709;52.396;16.796;2024-03-22T10:28:06;5;5;3
44045;PMS7003;29709;52.396;16.796;2024-03-22T10:31:19;5;5;3
44045;PMS7003;29709;52.396;16.796;2024-03-22T10:34:33;5;4;3
44045;PMS7003;29709;52.396;16.796;2024-03-22T10:37:48;6;3;2
44045;PMS7003;29709;52.396;16.796;2024-03-22T10:41:03;6;6;4
44045;PMS7003;29709;52.396;16.796;2024-03-22T10:44:17;6;2;1
44045;PMS7003;29709;52.396;16.796;2024-03-22T10:47:32;6;5;4
44045;PMS7003;29709;52.396;16.796;2024-03-22T10:50:46;6;6;4
44045;PMS7003;29709;52.396;16.796;2024-03-22T10:54:02;6;3;3
44045;PMS7003;29709;52.396;16.796;2024-03-22T10:57:18;6;4;3
44045;PMS7003;29709;52.396;16.796;2024-03-22T11:00:35;6;5;4
44045;PMS7003;29709;52.396;16.796;2024-03-22T11:03:49;10;6;4
44045;PMS7003;29709;52.396;16.796;2024-03-22T11:07:02;7;4;3
44045;PMS7003;29709;52.396;16.796;2024-03-22T11:10:16;7;6;4
44045;PMS7003;29709;52.396;16.796;2024-03-22T11:13:35;4;4;3
44045;PMS7003;29709;52.396;16.796;2024-03-22T11:16:48;7;4;3
44045;PMS7003;29709;52.396;16.796;2024-03-22T11:20:02;5;5;4
44045;PMS7003;29709;52.396;16.796;2024-03-22T11:23:15;6;3;2
44045;PMS7003;29709;52.396;16.796;2024-03-22T11:26:29;2;1;0
44045;PMS7003;29709;52.396;16.796;2024-03-22T11:29:44;6;3;2
44045;PMS7003;29709;52.396;16.796;2024-03-22T11:33:02;2;2;2
44045;PMS7003;29709;52.396;16.796;2024-03-22T11:36:16;3;1;1
44045;PMS7003;29709;52.396;16.796;2024-03-22T11:39:30;6;4;3
44045;PMS7003;29709;52.396;16.796;2024-03-22T11:42:46;2;1;1
44045;PMS7003;29709;52.396;16.796;2024-03-22T11:46:04;4;4;4
44045;PMS7003;29709;52.396;16.796;2024-03-22T11:49:17;3;3;2
44045;PMS7003;29709;52.396;16.796;2024-03-22T11:52:31;5;3;3
44045;PMS7003;29709;52.396;16.796;2024-03-22T11:55:44;2;2;1
44045;PMS7003;29709;52.396;16.796;2024-03-22T11:58:58;5;4;3
44045;PMS7003;29709;52.396;16.796;2024-03-22T12:02:13;4;4;3
44045;PMS7003;29709;52.396;16.796;2024-03-22T12:05:29;5;4;3
44045;PMS7003;29709;52.396;16.796;2024-03-22T12:08:43;5;4;3
44045;PMS7003;29709;52.396;16.796;2024-03-22T12:11:57;5;5;4
44045;PMS7003;29709;52.396;16.796;2024-03-22T12:15:10;6;4;3
44045;PMS7003;29709;52.396;16.796;2024-03-22T12:18:24;3;2;2
44045;PMS7003;29709;52.396;16.796;2024-03-22T12:21:37;6;4;3
44045;PMS7003;29709;52.396;16.796;2024-03-22T12:24:50;5;4;3
44045;PMS7003;29709;52.396;16.796;2024-03-22T12:28:04;3;3;2
44045;PMS7003;29709;52.396;16.796;2024-03-22T12:31:17;5;4;3
44045;PMS7003;29709;52.396;16.796;2024-03-22T12:34:31;4;4;3
44045;PMS7003;29709;52.396;16.796;2024-03-22T12:37:46;4;3;2
44045;PMS7003;29709;52.396;16.796;2024-03-22T12:40:59;5;4;3
44045;PMS7003;29709;52.396;16.796;2024-03-22T12:44:12;4;4;3
44045;PMS7003;29709;52.396;16.796;2024-03-22T12:47:26;4;3;2
44045;PMS7003;29709;52.396;16.796;2024-03-22T12:50:39;6;3;2
44045;PMS7003;29709;52.396;16.796;2024-03-22T12:53:53;5;4;3
44045;PMS7003;29709;52.396;16.796;2024-03-22T12:57:07;3;3;2
44045;PMS7003;29709;52.396;16.796;2024-03-22T13:00:21;7;5;3
44045;PMS7003;29709;52.396;16.796;2024-03-22T13:03:34;3;3;1
44045;PMS7003;29709;52.396;16.796;2024-03-22T13:06:48;3;2;2
44045;PMS7003;29709;52.396;16.796;2024-03-22T13:10:01;2;2;2
44045;PMS7003;29709;52.396;16.796;2024-03-22T13:13:14;4;4;3
44045;PMS7003;29709;52.396;16.796;2024-03-22T13:16:29;2;1;0
44045;PMS7003;29709;52.396;16.796;2024-03-22T13:19:42;5;3;2
44045;PMS7003;29709;52.396;16.796;2024-03-22T13:22:55;5;4;2
44045;PMS7003;29709;52.396;16.796;2024-03-22T13:26:09;5;4;2
44045;PMS7003;29709;52.396;16.796;2024-03-22T13:29:22;6;3;2
44045;PMS7003;29709;52.396;16.796;2024-03-22T13:32:39;5;3;1
44045;PMS7003;29709;52.396;16.796;2024-03-22T13:35:52;6;5;4
44045;PMS7003;29709;52.396;16.796;2024-03-22T13:39:05;3;3;1
44045;PMS7003;29709;52.396;16.796;2024-03-22T13:42:18;6;4;2
44045;PMS7003;29709;52.396;16.796;2024-03-22T13:45:32;4;3;2
44045;PMS7003;29709;52.396;16.796;2024-03-22T13:48:51;4;3;2
44045;PMS7003;29709;52.396;16.796;2024-03-22T13:52:04;6;5;3
44045;PMS7003;29709;52.396;16.796;2024-03-22T13:55:17;5;4;3
44045;PMS7003;29709;52.396;16.796;2024-03-22T13:58:31;6;3;3
44045;PMS7003;29709;52.396;16.796;2024-03-22T14:01:44;5;4;3
44045;PMS7003;29709;52.396;16.796;2024-03-22T14:04:59;4;4;2
44045;PMS7003;29709;52.396;16.796;2024-03-22T14:08:14;4;4;3
44045;PMS7003;29709;52.396;16.796;2024-03-22T14:11:28;6;5;4
44045;PMS7003;29709;52.396;16.796;2024-03-22T14:14:43;4;2;0
44045;PMS7003;29709;52.396;16.796;2024-03-22T14:17:57;4;4;3
44045;PMS7003;29709;52.396;16.796;2024-03-22T14:21:10;5;3;3
44045;PMS7003;29709;52.396;16.796;2024-03-22T14:24:33;6;5;4
44045;PMS7003;29709;52.396;16.796;2024-03-22T14:27:46;6;5;4
44045;PMS7003;29709;52.396;16.796;2024-03-22T14:30:59;6;4;3
44045;PMS7003;29709;52.396;16.796;2024-03-22T14:34:13;4;3;1
44045;PMS7003;29709;52.396;16.796;2024-03-22T14:37:26;3;2;1
44045;PMS7003;29709;52.396;16.796;2024-03-22T14:40:39;4;3;1
44045;PMS7003;29709;52.396;16.796;2024-03-22T14:43:53;3;3;2
44045;PMS7003;29709;52.396;16.796;2024-03-22T14:47:07;5;4;3
44045;PMS7003;29709;52.396;16.796;2024-03-22T14:50:20;5;4;3
44045;PMS7003;29709;52.396;16.796;2024-03-22T14:53:39;2;2;2
44045;PMS7003;29709;52.396;16.796;2024-03-22T14:56:52;4;3;2
44045;PMS7003;29709;52.396;16.796;2024-03-22T15:00:07;4;4;3
44045;PMS7003;29709;52.396;16.796;2024-03-22T15:03:25;4;4;4
44045;PMS7003;29709;52.396;16.796;2024-03-22T15:06:38;5;4;3
44045;PMS7003;29709;52.396;16.796;2024-03-22T15:09:52;4;3;2
44045;PMS7003;29709;52.396;16.796;2024-03-22T15:13:05;4;4;2
44045;PMS7003;29709;52.396;16.796;2024-03-22T15:16:19;5;3;2
44045;PMS7003;29709;52.396;16.796;2024-03-22T15:19:32;5;3;3
44045;PMS7003;29709;52.396;16.796;2024-03-22T15:22:46;5;5;4
44045;PMS7003;29709;52.396;16.796;2024-03-22T15:26:00;4;3;2
44045;PMS7003;29709;52.396;16.796;2024-03-22T15:29:13;5;4;3
44045;PMS7003;29709;52.396;16.796;2024-03-22T15:32:26;6;3;3
44045;PMS7003;29709;52.396;16.796;2024-03-22T15:35:41;6;4;3
44045;PMS7003;29709;52.396;16.796;2024-03-22T15:39:02;9;7;4
44045;PMS7003;29709;52.396;16.796;2024-03-22T15:42:17;6;5;4
44045;PMS7003;29709;52.396;16.796;2024-03-22T15:45:30;6;5;4
44045;PMS7003;29709;52.396;16.796;2024-03-22T15:48:46;5;5;4
44045;PMS7003;29709;52.396;16.796;2024-03-22T15:51:59;4;4;3
44045;PMS7003;29709;52.396;16.796;2024-03-22T15:55:12;3;3;2
44045;PMS7003;29709;52.396;16.796;2024-03-22T15:58:26;4;3;3
44045;PMS7003;29709;52.396;16.796;2024-03-22T16:01:42;6;4;3
44045;PMS7003;29709;52.396;16.796;2024-03-22T16:04:56;6;4;3
44045;PMS7003;29709;52.396;16.796;2024-03-22T16:08:09;4;4;3
44045;PMS7003;29709;52.396;16.796;2024-03-22T16:11:22;5;4;3
44045;PMS7003;29709;52.396;16.796;2024-03-22T16:14:36;6;5;4
44045;PMS7003;29709;52.396;16.796;2024-03-22T16:17:51;7;6;5
44045;PMS7003;29709;52.396;16.796;2024-03-22T16:21:05;5;5;3
44045;PMS7003;29709;52.396;16.796;2024-03-22T16:24:18;4;4;3
44045;PMS7003;29709;52.396;16.796;2024-03-22T16:27:33;6;4;3
44045;PMS7003;29709;52.396;16.796;2024-03-22T16:30:51;8;8;5
44045;PMS7003;29709;52.396;16.796;2024-03-22T16:34:05;6;5;4
44045;PMS7003;29709;52.396;16.796;2024-03-22T16:37:19;6;5;3
44045;PMS7003;29709;52.396;16.796;2024-03-22T16:40:32;7;6;4
44045;PMS7003;29709;52.396;16.796;2024-03-22T16:43:46;7;6;4
44045;PMS7003;29709;52.396;16.796;2024-03-22T16:46:59;6;6;4
44045;PMS7003;29709;52.396;16.796;2024-03-22T16:50:12;7;6;4
44045;PMS7003;29709;52.396;16.796;2024-03-22T16:53:26;10;7;4
44045;PMS7003;29709;52.396;16.796;2024-03-22T16:56:41;13;11;7
44045;PMS7003;29709;52.396;16.796;2024-03-22T16:59:55;12;8;6
44045;PMS7003;29709;52.396;16.796;2024-03-22T17:03:09;11;8;6
44045;PMS7003;29709;52.396;16.796;2024-03-22T17:06:23;27;22;15
44045;PMS7003;29709;52.396;16.796;2024-03-22T17:09:37;18;16;12
44045;PMS7003;29709;52.396;16.796;2024-03-22T17:12:51;15;12;9
44045;PMS7003;29709;52.396;16.796;2024-03-22T17:16:08;9;8;6
44045;PMS7003;29709;52.396;16.796;2024-03-22T17:19:22;9;7;6
44045;PMS7003;29709;52.396;16.796;2024-03-22T17:22:36;10;8;6
44045;PMS7003;29709;52.396;16.796;2024-03-22T17:25:49;17;14;10
44045;PMS7003;29709;52.396;16.796;2024-03-22T17:29:13;17;14;10
44045;PMS7003;29709;52.396;16.796;2024-03-22T17:32:27;16;12;9
44045;PMS7003;29709;52.396;16.796;2024-03-22T17:35:40;14;12;8
44045;PMS7003;29709;52.396;16.796;2024-03-22T17:38:53;7;6;5
44045;PMS7003;29709;52.396;16.796;2024-03-22T17:42:09;9;7;6
44045;PMS7003;29709;52.396;16.796;2024-03-22T17:45:22;8;7;5
44045;PMS7003;29709;52.396;16.796;2024-03-22T17:48:36;7;5;3
44045;PMS7003;29709;52.396;16.796;2024-03-22T17:51:49;7;6;5
44045;PMS7003;29709;52.396;16.796;2024-03-22T17:55:02;8;7;5
44045;PMS7003;29709;52.396;16.796;2024-03-22T17:58:16;7;7;5
44045;PMS7003;29709;52.396;16.796;2024-03-22T18:01:30;9;7;5
44045;PMS7003;29709;52.396;16.796;2024-03-22T18:04:51;3;2;1
44045;PMS7003;29709;52.396;16.796;2024-03-22T18:08:04;9;5;3
44045;PMS7003;29709;52.396;16.796;2024-03-22T18:11:18;3;1;0
44045;PMS7003;29709;52.396;16.796;2024-03-22T18:14:31;8;6;5
44045;PMS7003;29709;52.396;16.796;2024-03-22T18:17:44;6;4;3
44045;PMS7003;29709;52.396;16.796;2024-03-22T18:20:58;5;5;3
44045;PMS7003;29709;52.396;16.796;2024-03-22T18:24:12;6;6;4
44045;PMS7003;29709;52.396;16.796;2024-03-22T18:27:25;6;5;4
44045;PMS7003;29709;52.396;16.796;2024-03-22T18:30:39;6;5;4
44045;PMS7003;29709;52.396;16.796;2024-03-22T18:33:52;6;5;5
44045;PMS7003;29709;52.396;16.796;2024-03-22T18:37:06;6;5;4
44045;PMS7003;29709;52.396;16.796;2024-03-22T18:40:20;7;6;4
44045;PMS7003;29709;52.396;16.796;2024-03-22T18:43:33;7;7;5
44045;PMS7003;29709;52.396;16.796;2024-03-22T18:46:47;6;5;4
44045;PMS7003;29709;52.396;16.796;2024-03-22T18:50:01;5;4;3
44045;PMS7003;29709;52.396;16.796;2024-03-22T18:53:15;8;6;4
44045;PMS7003;29709;52.396;16.796;2024-03-22T18:56:28;8;6;4
44045;PMS7003;29709;52.396;16.796;2024-03-22T19:00:40;4;4;2
44045;PMS7003;29709;52.396;16.796;2024-03-22T19:03:53;7;5;4
44045;PMS7003;29709;52.396;16.796;2024-03-22T19:07:07;6;5;4
44045;PMS7003;29709;52.396;16.796;2024-03-22T19:10:20;5;4;3
44045;PMS7003;29709;52.396;16.796;2024-03-22T19:13:34;3;2;1
44045;PMS7003;29709;52.396;16.796;2024-03-22T19:16:48;8;5;3
44045;PMS7003;29709;52.396;16.796;2024-03-22T19:20:01;6;5;4
44045;PMS7003;29709;52.396;16.796;2024-03-22T19:23:14;7;6;4
44045;PMS7003;29709;52.396;16.796;2024-03-22T19:26:28;4;4;2
44045;PMS7003;29709;52.396;16.796;2024-03-22T19:29:42;3;2;2
44045;PMS7003;29709;52.396;16.796;2024-03-22T19:32:55;8;5;4
44045;PMS7003;29709;52.396;16.796;2024-03-22T19:36:09;5;5;4
44045;PMS7003;29709;52.396;16.796;2024-03-22T19:39:23;7;5;4
44045;PMS7003;29709;52.396;16.796;2024-03-22T19:42:36;3;3;2
44045;PMS7003;29709;52.396;16.796;2024-03-22T19:45:50;6;3;3
44045;PMS7003;29709;52.396;16.796;2024-03-22T19:49:04;5;3;2
44045;PMS7003;29709;52.396;16.796;2024-03-22T19:52:18;5;4;3
44045;PMS7003;29709;52.396;16.796;2024-03-22T19:55:31;4;4;4
44045;PMS7003;29709;52.396;16.796;2024-03-22T19:58:45;6;5;4
44045;PMS7003;29709;52.396;16.796;2024-03-22T20:01:59;7;5;3
44045;PMS7003;29709;52.396;16.796;2024-03-22T20:05:12;3;2;2
44045;PMS7003;29709;52.396;16.796;2024-03-22T20:08:26;7;4;3
44045;PMS7003;29709;52.396;16.796;2024-03-22T20:11:41;4;3;3
44045;PMS7003;29709;52.396;16.796;2024-03-22T20:14:57;3;2;2
44045;PMS7003;29709;52.396;16.796;2024-03-22T20:18:11;4;4;2
44045;PMS7003;29709;52.396;16.796;2024-03-22T20:21:24;3;2;2
44045;PMS7003;29709;52.396;16.796;2024-03-22T20:24:38;4;3;2
44045;PMS7003;29709;52.396;16.796;2024-03-22T20:27:53;4;3;2
44045;PMS7003;29709;52.396;16.796;2024-03-22T20:31:07;4;2;1
44045;PMS7003;29709;52.396;16.796;2024-03-22T20:34:20;4;3;3
44045;PMS7003;29709;52.396;16.796;2024-03-22T20:37:34;3;3;2
